
Distance (Route):
Temperature : 26.2°C
Humidity : 26.0%
Pressure : 0hPa| Receiver | Date | Latitude | Longitude | Direction | Speed | Altitude | Climb | Temperature | Humidity | Pressure | Voltage | Killtimer | Uptime | BKT | XDATA |
|---|---|---|---|---|---|---|---|---|---|---|---|---|---|---|---|
| LZ4TU-5 | 2026-09-02 12:59:59 | 44.32682 | 23.46340 | 76° | 18km/h | 775m | -12.3m/s | 26.2°C | 26.0% | 0hPa | 0V | 00:00:00 | 00:00:00 | 00:00:00 | |
| LZ4TU-5 | 2026-09-02 12:59:54 | 44.32677 | 23.46309 | 74° | 20km/h | 837m | -12.5m/s | 25.7°C | 26.3% | 0hPa | 0V | 00:00:00 | 00:00:00 | 00:00:00 | |
| LZ4TU-5 | 2026-09-02 12:59:50 | 44.32674 | 23.46286 | 81° | 22km/h | 881m | -12.0m/s | 25.2°C | 26.7% | 0hPa | 0V | 00:00:00 | 00:00:00 | 00:00:00 | |
| LZ4TU-5 | 2026-09-02 12:59:45 | 44.32670 | 23.46249 | 82° | 20km/h | 938m | -12.2m/s | 24.6°C | 27.2% | 0hPa | 0V | 00:00:00 | 00:00:00 | 00:00:00 | |
| LZ4TU-5 | 2026-09-02 12:59:40 | 44.32665 | 23.46214 | 82° | 20km/h | 1000m | -11.9m/s | 24.0°C | 27.7% | 0hPa | 0V | 00:00:00 | 00:00:00 | 00:00:00 | |
| LZ4TU-5 | 2026-09-02 12:59:35 | 44.32660 | 23.46179 | 79° | 20km/h | 1061m | -11.3m/s | 23.5°C | 28.2% | 0hPa | 0V | 00:00:00 | 00:00:00 | 00:00:00 | |
| LZ4TU-5 | 2026-09-02 12:59:30 | 44.32656 | 23.46141 | 84° | 22km/h | 1120m | -11.2m/s | 22.9°C | 28.7% | 0hPa | 0V | 00:00:00 | 00:00:00 | 00:00:00 | |
| LZ4TU-5 | 2026-09-02 12:59:26 | 44.32652 | 23.46111 | 82° | 18km/h | 1167m | -11.3m/s | 22.5°C | 28.9% | 0hPa | 0V | 00:00:00 | 00:00:00 | 00:00:00 | |
| LZ4TU-5 | 2026-09-02 12:59:21 | 44.32647 | 23.46077 | 78° | 18km/h | 1225m | -11.1m/s | 22.0°C | 29.4% | 0hPa | 0V | 00:00:00 | 00:00:00 | 00:00:00 | |
| LZ4TU-5 | 2026-09-02 12:59:16 | 44.32645 | 23.46048 | 89° | 18km/h | 1282m | -11.4m/s | 21.4°C | 30.0% | 0hPa | 0V | 00:00:00 | 00:00:00 | 00:00:00 | |
| LZ4TU-5 | 2026-09-02 12:59:11 | 44.32647 | 23.46020 | 93° | 16km/h | 1327m | -11.9m/s | 20.9°C | 30.8% | 0hPa | 0V | 00:00:00 | 00:00:00 | 00:00:00 | |
| LZ4TU-5 | 2026-09-02 12:59:06 | 44.32647 | 23.45991 | 91° | 16km/h | 1390m | -12.4m/s | 20.3°C | 31.3% | 0hPa | 0V | 00:00:00 | 00:00:00 | 00:00:00 | |
| LZ4TU-5 | 2026-09-02 12:59:01 | 44.32647 | 23.45965 | 100° | 13km/h | 1456m | -13.1m/s | 19.7°C | 32.1% | 0hPa | 0V | 00:00:00 | 00:00:00 | 00:00:00 | |
| LZ4TU-5 | 2026-09-02 12:58:57 | 44.32653 | 23.45940 | 114° | 16km/h | 1523m | -12.3m/s | 19.1°C | 32.2% | 0hPa | 0V | 00:00:00 | 00:00:00 | 00:00:00 | |
| LZ4TU-5 | 2026-09-02 12:58:52 | 44.32660 | 23.45918 | 124° | 18km/h | 1574m | -11.8m/s | 18.6°C | 32.5% | 0hPa | 0V | 00:00:00 | 00:00:00 | 00:00:00 | |
| LZ4TU-5 | 2026-09-02 12:58:47 | 44.32671 | 23.45890 | 114° | 16km/h | 1635m | -10.9m/s | 18.0°C | 33.1% | 0hPa | 0V | 00:00:00 | 00:00:00 | 00:00:00 | |
| LZ4TU-5 | 2026-09-02 12:58:43 | 44.32675 | 23.45861 | 95° | 16km/h | 1690m | -9.9m/s | 17.5°C | 33.7% | 0hPa | 0V | 00:00:00 | 00:00:00 | 00:00:00 | |
| LZ4TU-5 | 2026-09-02 12:58:38 | 44.32674 | 23.45838 | 80° | 15km/h | 1733m | -10.6m/s | 17.1°C | 34.3% | 0hPa | 0V | 00:00:00 | 00:00:00 | 00:00:00 | |
| LZ4TU-5 | 2026-09-02 12:58:34 | 44.32672 | 23.45817 | 76° | 18km/h | 1776m | -10.8m/s | 16.8°C | 34.8% | 0hPa | 0V | 00:00:00 | 00:00:00 | 00:00:00 | |
| LZ4TU-5 | 2026-09-02 12:58:29 | 44.32670 | 23.45787 | 86° | 22km/h | 1820m | -11.0m/s | 16.2°C | 35.7% | 0hPa | 0V | 00:00:00 | 00:00:00 | 00:00:00 | |
| LZ4TU-5 | 2026-09-02 12:58:25 | 44.32668 | 23.45757 | 89° | 20km/h | 1865m | -11.5m/s | 15.8°C | 36.3% | 0hPa | 0V | 00:00:00 | 00:00:00 | 00:00:00 | |
| LZ4TU-5 | 2026-09-02 12:58:20 | 44.32667 | 23.45724 | 90° | 16km/h | 1925m | -12.0m/s | 15.2°C | 37.3% | 0hPa | 0V | 00:00:00 | 00:00:00 | 00:00:00 | |
| LZ4TU-5 | 2026-09-02 12:58:16 | 44.32667 | 23.45701 | 93° | 16km/h | 1971m | -11.4m/s | 14.7°C | 38.0% | 0hPa | 0V | 00:00:00 | 00:00:00 | 00:00:00 | |
| LZ4TU-5 | 2026-09-02 12:58:11 | 44.32670 | 23.45670 | 100° | 18km/h | 2024m | -11.4m/s | 14.2°C | 39.1% | 0hPa | 0V | 00:00:00 | 00:00:00 | 00:00:00 | |
| LZ4TU-5 | 2026-09-02 12:58:07 | 44.32673 | 23.45641 | 94° | 15km/h | 2077m | -10.9m/s | 13.7°C | 40.0% | 0hPa | 0V | 00:00:00 | 00:00:00 | 00:00:00 | |
| LZ4TU-5 | 2026-09-02 12:58:01 | 44.32673 | 23.45620 | 93° | 7km/h | 2131m | -10.6m/s | 13.2°C | 41.0% | 0hPa | 0V | 00:00:00 | 00:00:00 | 00:00:00 | |
| LZ4TU-5 | 2026-09-02 12:57:56 | 44.32670 | 23.45609 | 45° | 4km/h | 2188m | -12.4m/s | 12.6°C | 42.1% | 0hPa | 0V | 00:00:00 | 00:00:00 | 00:00:00 | |
| LZ4TU-5 | 2026-09-02 12:57:51 | 44.32668 | 23.45606 | 52° | 5km/h | 2258m | -15.1m/s | 11.9°C | 43.9% | 0hPa | 0V | 00:00:00 | 00:00:00 | 00:00:00 | |
| LZ4TU-5 | 2026-09-02 12:57:46 | 44.32664 | 23.45599 | 67° | 7km/h | 2330m | -14.2m/s | 11.1°C | 45.3% | 0hPa | 0V | 00:00:00 | 00:00:00 | 00:00:00 | |
| LZ4TU-5 | 2026-09-02 12:57:42 | 44.32664 | 23.45595 | 77° | 7km/h | 2377m | -14.0m/s | 10.6°C | 46.6% | 0hPa | 0V | 00:00:00 | 00:00:00 | 00:00:00 | |
| LZ4TU-5 | 2026-09-02 12:57:37 | 44.32660 | 23.45578 | 75° | 15km/h | 2440m | -13.2m/s | 10.0°C | 46.6% | 0hPa | 0V | 00:00:00 | 00:00:00 | 00:00:00 | |
| LZ4TU-5 | 2026-09-02 12:57:32 | 44.32657 | 23.45550 | 84° | 16km/h | 2512m | -15.5m/s | 9.3°C | 49.5% | 0hPa | 0V | 00:00:00 | 00:00:00 | 00:00:00 | |
| LZ4TU-5 | 2026-09-02 12:57:29 | 44.32655 | 23.45526 | 91° | 16km/h | 2576m | -15.2m/s | 8.7°C | 48.6% | 0hPa | 0V | 00:00:00 | 00:00:00 | 00:00:00 | |
| LZ4TU-5 | 2026-09-02 12:57:23 | 44.32656 | 23.45497 | 99° | 15km/h | 2655m | -14.9m/s | 8.0°C | 50.5% | 0hPa | 0V | 00:00:00 | 00:00:00 | 00:00:00 | |
| LZ4TU-5 | 2026-09-02 12:57:18 | 44.32659 | 23.45471 | 101° | 15km/h | 2733m | -14.9m/s | 7.3°C | 50.7% | 0hPa | 0V | 00:00:00 | 00:00:00 | 00:00:00 | |
| LZ4TU-5 | 2026-09-02 12:57:14 | 44.32661 | 23.45440 | 94° | 20km/h | 2810m | -14.9m/s | 6.9°C | 48.6% | 0hPa | 0V | 00:00:00 | 00:00:00 | 00:00:00 | |
| LZ4TU-5 | 2026-09-02 12:57:10 | 44.32661 | 23.45408 | 85° | 26km/h | 2875m | -15.7m/s | 6.1°C | 51.9% | 0hPa | 0V | 00:00:00 | 00:00:00 | 00:00:00 | |
| LZ4TU-5 | 2026-09-02 12:57:05 | 44.32655 | 23.45361 | 83° | 33km/h | 2955m | -15.0m/s | 5.6°C | 49.3% | 0hPa | 0V | 00:00:00 | 00:00:00 | 00:00:00 | |
| LZ4TU-5 | 2026-09-02 12:57:00 | 44.32651 | 23.45317 | 82° | 35km/h | 3016m | -14.6m/s | 5.9°C | 38.5% | 0hPa | 0V | 00:00:00 | 00:00:00 | 00:00:00 | |
| LZ4TU-5 | 2026-09-02 12:56:55 | 44.32644 | 23.45256 | 83° | 35km/h | 3081m | -14.6m/s | 5.5°C | 41.2% | 0hPa | 0V | 00:00:00 | 00:00:00 | 00:00:00 | |
| LZ4TU-5 | 2026-09-02 12:56:51 | 44.32638 | 23.45206 | 81° | 35km/h | 3144m | -14.7m/s | 5.0°C | 40.8% | 0hPa | 0V | 00:00:00 | 00:00:00 | 00:00:00 | |
| LZ4TU-5 | 2026-09-02 12:56:46 | 44.32628 | 23.45147 | 77° | 35km/h | 3220m | -14.7m/s | 4.4°C | 39.1% | 0hPa | 0V | 00:00:00 | 00:00:00 | 00:00:00 | |
| LZ4TU-5 | 2026-09-02 12:56:42 | 44.32620 | 23.45098 | 82° | 40km/h | 3281m | -14.6m/s | 4.1°C | 34.8% | 0hPa | 0V | 00:00:00 | 00:00:00 | 00:00:00 | |
| LZ4TU-5 | 2026-09-02 12:56:37 | 44.32612 | 23.45027 | 85° | 42km/h | 3359m | -14.6m/s | 3.7°C | 30.5% | 0hPa | 0V | 00:00:00 | 00:00:00 | 00:00:00 | |
| LZ4TU-5 | 2026-09-02 12:56:32 | 44.32608 | 23.44949 | 86° | 44km/h | 3428m | -14.7m/s | 3.3°C | 26.6% | 0hPa | 0V | 00:00:00 | 00:00:00 | 00:00:00 | |
| LZ4TU-5 | 2026-09-02 12:56:27 | 44.32601 | 23.44873 | 86° | 42km/h | 3503m | -14.8m/s | 3.0°C | 21.2% | 0hPa | 0V | 00:00:00 | 00:00:00 | 00:00:00 | |
| LZ4TU-5 | 2026-09-02 12:56:23 | 44.32598 | 23.44814 | 86° | 40km/h | 3564m | -15.2m/s | 2.7°C | 20.5% | 0hPa | 0V | 00:00:00 | 00:00:00 | 00:00:00 | |
| LZ4TU-5 | 2026-09-02 12:56:18 | 44.32595 | 23.44744 | 88° | 38km/h | 3632m | -14.9m/s | 2.6°C | 16.0% | 0hPa | 0V | 00:00:00 | 00:00:00 | 00:00:00 | |
| LZ4TU-5 | 2026-09-02 12:56:13 | 44.32593 | 23.44679 | 91° | 37km/h | 3709m | -14.9m/s | 2.3°C | 14.6% | 0hPa | 0V | 00:00:00 | 00:00:00 | 00:00:00 | |
| LZ4TU-5 | 2026-09-02 12:56:09 | 44.32594 | 23.44630 | 95° | 35km/h | 3771m | -15.2m/s | 2.1°C | 14.0% | 0hPa | 0V | 00:00:00 | 00:00:00 | 00:00:00 | |
| LZ4TU-5 | 2026-09-02 12:56:05 | 44.32597 | 23.44584 | 98° | 33km/h | 3831m | -14.8m/s | 1.6°C | 14.2% | 0hPa | 0V | 00:00:00 | 00:00:00 | 00:00:00 | |
| LZ4TU-5 | 2026-09-02 12:56:00 | 44.32606 | 23.44528 | 106° | 31km/h | 3901m | -15.3m/s | 1.0°C | 14.5% | 0hPa | 0V | 00:00:00 | 00:00:00 | 00:00:00 | |
| LZ4TU-5 | 2026-09-02 12:55:55 | 44.32618 | 23.44473 | 108° | 33km/h | 3974m | -16.3m/s | 0.3°C | 14.6% | 0hPa | 0V | 00:00:00 | 00:00:00 | 00:00:00 | |
| LZ4TU-5 | 2026-09-02 12:55:51 | 44.32628 | 23.44425 | 111° | 37km/h | 4041m | -16.0m/s | -0.1°C | 13.6% | 0hPa | 0V | 00:00:00 | 00:00:00 | 00:00:00 | |
| LZ4TU-5 | 2026-09-02 12:55:47 | 44.32642 | 23.44374 | 114° | 38km/h | 4108m | -16.4m/s | -0.6°C | 13.2% | 0hPa | 0V | 00:00:00 | 00:00:00 | 00:00:00 | |
| LZ4TU-5 | 2026-09-02 12:55:42 | 44.32662 | 23.44310 | 115° | 42km/h | 4193m | -16.9m/s | -0.6°C | 12.2% | 0hPa | 0V | 00:00:00 | 00:00:00 | 00:00:00 | |
| LZ4TU-5 | 2026-09-02 12:55:37 | 44.32682 | 23.44244 | 108° | 42km/h | 4274m | -16.6m/s | -0.6°C | 11.2% | 0hPa | 0V | 00:00:00 | 00:00:00 | 00:00:00 | |
| LZ4TU-5 | 2026-09-02 12:55:32 | 44.32697 | 23.44168 | 104° | 46km/h | 4355m | -17.9m/s | -0.9°C | 10.2% | 0hPa | 0V | 00:00:00 | 00:00:00 | 00:00:00 | |
| LZ4TU-5 | 2026-09-02 12:55:29 | 44.32708 | 23.44087 | 102° | 46km/h | 4446m | -16.2m/s | -1.5°C | 9.6% | 0hPa | 0V | 00:00:00 | 00:00:00 | 00:00:00 | |
| LZ4TU-5 | 2026-09-02 12:55:23 | 44.32717 | 23.44025 | 101° | 46km/h | 4515m | -16.9m/s | -2.0°C | 9.3% | 0hPa | 0V | 00:00:00 | 00:00:00 | 00:00:00 | |
| LZ4TU-5 | 2026-09-02 12:55:18 | 44.32724 | 23.43947 | 97° | 46km/h | 4603m | -17.6m/s | -2.5°C | 9.2% | 0hPa | 0V | 00:00:00 | 00:00:00 | 00:00:00 | |
| LZ4TU-5 | 2026-09-02 12:55:13 | 44.32729 | 23.43873 | 94° | 46km/h | 4683m | -16.5m/s | -2.6°C | 5.4% | 0hPa | 0V | 00:00:00 | 00:00:00 | 00:00:00 | |
| LZ4TU-5 | 2026-09-02 12:55:08 | 44.32735 | 23.43786 | 99° | 47km/h | 4767m | -17.1m/s | -2.9°C | 7.3% | 0hPa | 0V | 00:00:00 | 00:00:00 | 00:00:00 | |
| LZ4TU-5 | 2026-09-02 12:50:59 | 44.32516 | 23.37386 | 89° | 104km/h | 9593m | -20.8m/s | -37.5°C | 39.9% | 0hPa | 0V | 00:00:00 | 00:00:00 | 00:00:00 | |
| LZ4TU-5 | 2026-09-02 12:50:54 | 44.32509 | 23.37209 | 88° | 104km/h | 9694m | -21.1m/s | -38.5°C | 41.6% | 0hPa | 0V | 00:00:00 | 00:00:00 | 00:00:00 | |
| OM5KV | 2026-09-02 12:41:24 | 44.30815 | 23.27007 | 0° | 0km/h | 31562m | 7.6m/s | -37.8°C | 0.0% | 0hPa | 0V | 00:00:00 | 00:00:00 | 00:00:00 | |
| OM5KV | 2026-09-02 12:41:13 | 44.30801 | 23.27008 | 358° | 13km/h | 31482m | 7.1m/s | -38.4°C | 0.0% | 0hPa | 0V | 00:00:00 | 00:00:00 | 00:00:00 | |
| OM5KV | 2026-09-02 12:40:52 | 44.30720 | 23.27004 | 9° | 24km/h | 31333m | 6.8m/s | -38.0°C | 0.0% | 0hPa | 0V | 00:00:00 | 00:00:00 | 00:00:00 | |
| OM5KV | 2026-09-02 12:40:40 | 44.30647 | 23.27041 | 306° | 33km/h | 31243m | 5.7m/s | -38.0°C | 0.0% | 0hPa | 0V | 00:00:00 | 00:00:00 | 00:00:00 | |
| OM5KV | 2026-09-02 12:40:38 | 44.30623 | 23.27063 | 345° | 38km/h | 31220m | 5.9m/s | -38.2°C | 0.0% | 0hPa | 0V | 00:00:00 | 00:00:00 | 00:00:00 | |
| OM5KV | 2026-09-02 12:40:31 | 44.30598 | 23.27093 | 297° | 13km/h | 31173m | 8.4m/s | -38.1°C | 0.0% | 0hPa | 0V | 00:00:00 | 00:00:00 | 00:00:00 | |
| OM5KV | 2026-09-02 12:40:23 | 44.30573 | 23.27140 | 304° | 16km/h | 31112m | 8.1m/s | -38.2°C | 0.0% | 0hPa | 0V | 00:00:00 | 00:00:00 | 00:00:00 | |
| OM5KV | 2026-09-02 12:40:14 | 44.30566 | 23.27175 | 308° | 18km/h | 31042m | 6.4m/s | -38.5°C | 0.0% | 0hPa | 0V | 00:00:00 | 00:00:00 | 00:00:00 | |
| OM5KV | 2026-09-02 12:40:13 | 44.30563 | 23.27186 | 265° | 15km/h | 31026m | 8.0m/s | -38.5°C | 0.0% | 0hPa | 0V | 00:00:00 | 00:00:00 | 00:00:00 | |
| OM5KV | 2026-09-02 12:40:09 | 44.30565 | 23.27195 | 0° | 0km/h | 31004m | 10.8m/s | -38.6°C | 0.0% | 0hPa | 0V | 00:00:00 | 00:00:00 | 00:00:00 | |
| OM5KV | 2026-09-02 12:40:08 | 44.30565 | 23.27193 | 88° | 7km/h | 30998m | 5.6m/s | -38.7°C | 0.0% | 0hPa | 0V | 00:00:00 | 00:00:00 | 00:00:00 | |
| OM5KV | 2026-09-02 12:40:05 | 44.30569 | 23.27192 | 239° | 13km/h | 30977m | 9.3m/s | -38.9°C | 0.0% | 0hPa | 0V | 00:00:00 | 00:00:00 | 00:00:00 | |
| OM5KV | 2026-09-02 12:39:59 | 44.30558 | 23.27223 | 46° | 22km/h | 30934m | 5.8m/s | -39.2°C | 0.0% | 0hPa | 0V | 00:00:00 | 00:00:00 | 00:00:00 | |
| OM5KV | 2026-09-02 12:39:55 | 44.30553 | 23.27210 | 174° | 7km/h | 30905m | 6.3m/s | -39.4°C | 0.0% | 0hPa | 0V | 00:00:00 | 00:00:00 | 00:00:00 | |
| OM5KV | 2026-09-02 12:39:44 | 44.30545 | 23.27192 | 33° | 18km/h | 30819m | 8.8m/s | -40.1°C | 0.0% | 0hPa | 0V | 00:00:00 | 00:00:00 | 00:00:00 | |
| OM5KV | 2026-09-02 12:39:43 | 44.30542 | 23.27192 | 336° | 16km/h | 30811m | 7.5m/s | -40.0°C | 0.0% | 0hPa | 0V | 00:00:00 | 00:00:00 | 00:00:00 | |
| OM5KV | 2026-09-02 12:39:39 | 44.30527 | 23.27208 | 5° | 11km/h | 30784m | 6.2m/s | -40.3°C | 0.0% | 0hPa | 0V | 00:00:00 | 00:00:00 | 00:00:00 | |
| OM5KV | 2026-09-02 12:39:38 | 44.30525 | 23.27207 | 38° | 7km/h | 30777m | 7.4m/s | -40.3°C | 0.0% | 0hPa | 0V | 00:00:00 | 00:00:00 | 00:00:00 | |
| OM5KV | 2026-09-02 12:39:32 | 44.30510 | 23.27180 | 8° | 24km/h | 30735m | 5.5m/s | -40.5°C | 0.0% | 0hPa | 0V | 00:00:00 | 00:00:00 | 00:00:00 | |
| OM5KV | 2026-09-02 12:39:26 | 44.30466 | 23.27207 | 6° | 24km/h | 30692m | 9.1m/s | -41.0°C | 0.0% | 0hPa | 0V | 00:00:00 | 00:00:00 | 00:00:00 | |
| OM5KV | 2026-09-02 12:39:25 | 44.30461 | 23.27204 | 39° | 22km/h | 30684m | 8.4m/s | -40.9°C | 0.0% | 0hPa | 0V | 00:00:00 | 00:00:00 | 00:00:00 | |
| OM5KV | 2026-09-02 12:39:23 | 44.30455 | 23.27190 | 67° | 24km/h | 30672m | 7.0m/s | -41.1°C | 0.0% | 0hPa | 0V | 00:00:00 | 00:00:00 | 00:00:00 | |
| OM5KV | 2026-09-02 12:39:17 | 44.30431 | 23.27210 | 346° | 38km/h | 30626m | 9.6m/s | -41.4°C | 0.0% | 0hPa | 0V | 00:00:00 | 00:00:00 | 00:00:00 | |
| OM5KV | 2026-09-02 12:39:15 | 44.30413 | 23.27211 | 6° | 33km/h | 30610m | 6.9m/s | -41.4°C | 0.0% | 0hPa | 0V | 00:00:00 | 00:00:00 | 00:00:00 | |
| OM5KV | 2026-09-02 12:39:08 | 44.30372 | 23.27215 | 296° | 18km/h | 30557m | 8.3m/s | -41.3°C | 0.0% | 0hPa | 0V | 00:00:00 | 00:00:00 | 00:00:00 | |
| OM5KV | 2026-09-02 12:38:53 | 44.30262 | 23.27313 | 330° | 37km/h | 30447m | 5.2m/s | -41.0°C | 0.0% | 0hPa | 0V | 00:00:00 | 00:00:00 | 00:00:00 | |
| OM5KV | 2026-09-02 12:38:47 | 44.30226 | 23.27338 | 313° | 24km/h | 30409m | 8.3m/s | -40.9°C | 0.0% | 0hPa | 0V | 00:00:00 | 00:00:00 | 00:00:00 | |
| OM5KV | 2026-09-02 12:38:46 | 44.30221 | 23.27347 | 304° | 35km/h | 30405m | 4.0m/s | -40.7°C | 0.0% | 0hPa | 0V | 00:00:00 | 00:00:00 | 00:00:00 | |
| OM5KV | 2026-09-02 12:38:42 | 44.30186 | 23.27398 | 320° | 60km/h | 30379m | 3.3m/s | -40.6°C | 0.0% | 0hPa | 0V | 00:00:00 | 00:00:00 | 00:00:00 | |
| OM5KV | 2026-09-02 12:38:32 | 44.30132 | 23.27498 | 297° | 55km/h | 30307m | 5.6m/s | -40.5°C | 0.0% | 0hPa | 0V | 00:00:00 | 00:00:00 | 00:00:00 | |
| OM5KV | 2026-09-02 12:38:18 | 44.30058 | 23.27643 | 329° | 44km/h | 30205m | 4.0m/s | -40.3°C | 0.0% | 0hPa | 0V | 00:00:00 | 00:00:00 | 00:00:00 | |
| OM5KV | 2026-09-02 12:37:58 | 44.30036 | 23.27754 | 238° | 27km/h | 30073m | 6.9m/s | -41.0°C | 0.0% | 0hPa | 0V | 00:00:00 | 00:00:00 | 00:00:00 | |
| OM5KV | 2026-09-02 12:37:49 | 44.30025 | 23.27778 | 200° | 13km/h | 30010m | 5.6m/s | -41.2°C | 0.0% | 0hPa | 0V | 00:00:00 | 00:00:00 | 00:00:00 | |
| OM5KV | 2026-09-02 12:37:38 | 44.29994 | 23.27810 | 80° | 4km/h | 29931m | 6.1m/s | -41.2°C | 0.0% | 0hPa | 0V | 00:00:00 | 00:00:00 | 00:00:00 | |
| OM5KV | 2026-09-02 12:37:16 | 44.29910 | 23.27895 | 350° | 13km/h | 29774m | 6.9m/s | -41.3°C | 0.0% | 0hPa | 0V | 00:00:00 | 00:00:00 | 00:00:00 | |
| OM5KV | 2026-09-02 12:36:49 | 44.29853 | 23.27985 | 324° | 11km/h | 29581m | 8.9m/s | -42.4°C | 0.0% | 0hPa | 0V | 00:00:00 | 00:00:00 | 00:00:00 | |
| OM5KV | 2026-09-02 12:36:22 | 44.29749 | 23.28094 | 307° | 47km/h | 29383m | 5.7m/s | -42.8°C | 0.0% | 0hPa | 0V | 00:00:00 | 00:00:00 | 00:00:00 | |
| OM5KV | 2026-09-02 12:36:15 | 44.29730 | 23.28130 | 331° | 11km/h | 29331m | 7.9m/s | -42.8°C | 0.0% | 0hPa | 0V | 00:00:00 | 00:00:00 | 00:00:00 | |
| OM5KV | 2026-09-02 12:36:10 | 44.29719 | 23.28160 | 247° | 27km/h | 29293m | 9.0m/s | -42.6°C | 0.0% | 0hPa | 0V | 00:00:00 | 00:00:00 | 00:00:00 | |
| OM5KV | 2026-09-02 12:35:42 | 44.29761 | 23.28302 | 141° | 11km/h | 29082m | 7.1m/s | -42.8°C | 0.0% | 0hPa | 0V | 00:00:00 | 00:00:00 | 00:00:00 | |
| OM5KV | 2026-09-02 12:35:18 | 44.29782 | 23.28328 | 211° | 16km/h | 28920m | 4.5m/s | -42.7°C | 0.0% | 0hPa | 0V | 00:00:00 | 00:00:00 | 00:00:00 | |
| OM5KV | 2026-09-02 12:35:12 | 44.29782 | 23.28336 | 198° | 7km/h | 28875m | 8.1m/s | -42.6°C | 0.0% | 0hPa | 0V | 00:00:00 | 00:00:00 | 00:00:00 | |
| OM5KV | 2026-09-02 12:34:57 | 44.29808 | 23.28382 | 258° | 15km/h | 28762m | 6.0m/s | -42.7°C | 0.0% | 0hPa | 0V | 00:00:00 | 00:00:00 | 00:00:00 | |
| OM5KV | 2026-09-02 12:34:41 | 44.29805 | 23.28442 | 353° | 7km/h | 28650m | 7.3m/s | -42.4°C | 0.0% | 0hPa | 0V | 00:00:00 | 00:00:00 | 00:00:00 | |
| OM5KV | 2026-09-02 12:34:28 | 44.29797 | 23.28478 | 238° | 11km/h | 28558m | 9.8m/s | -42.8°C | 0.0% | 0hPa | 0V | 00:00:00 | 00:00:00 | 00:00:00 | |
| OM5KV | 2026-09-02 12:34:19 | 44.29795 | 23.28491 | 290° | 13km/h | 28496m | 6.5m/s | -43.2°C | 0.0% | 0hPa | 0V | 00:00:00 | 00:00:00 | 00:00:00 | |
| OM5KV | 2026-09-02 12:34:05 | 44.29800 | 23.28534 | 205° | 15km/h | 28397m | 6.9m/s | -43.3°C | 0.0% | 0hPa | 0V | 00:00:00 | 00:00:00 | 00:00:00 | |
| OM5KV | 2026-09-02 12:33:59 | 44.29798 | 23.28536 | 166° | 5km/h | 28353m | 9.0m/s | -43.6°C | 0.0% | 0hPa | 0V | 00:00:00 | 00:00:00 | 00:00:00 | |
| OM5KV | 2026-09-02 12:33:53 | 44.29815 | 23.28536 | 115° | 13km/h | 28310m | 6.6m/s | -43.8°C | 0.0% | 0hPa | 0V | 00:00:00 | 00:00:00 | 00:00:00 | |
| OM5KV | 2026-09-02 12:33:38 | 44.29814 | 23.28480 | 198° | 4km/h | 28209m | 5.2m/s | -44.7°C | 0.0% | 0hPa | 0V | 00:00:00 | 00:00:00 | 00:00:00 | |
| OM5KV | 2026-09-02 12:33:33 | 44.29806 | 23.28468 | 65° | 20km/h | 28172m | 9.2m/s | -44.8°C | 0.0% | 0hPa | 0V | 00:00:00 | 00:00:00 | 00:00:00 | |
| OM5KV | 2026-09-02 12:33:19 | 44.29761 | 23.28428 | 3° | 16km/h | 28073m | 8.7m/s | -45.1°C | 0.0% | 0hPa | 0V | 00:00:00 | 00:00:00 | 00:00:00 | |
| OM5KV | 2026-09-02 12:33:08 | 44.29725 | 23.28436 | 284° | 4km/h | 28001m | 7.4m/s | -45.0°C | 0.0% | 0hPa | 0V | 00:00:00 | 00:00:00 | 00:00:00 | |
| LZ4TU-5 | 2026-09-02 11:48:36 | 44.22717 | 22.91868 | 92° | 93km/h | 11263m | 7.1m/s | -50.5°C | 21.2% | 0hPa | 0V | 00:00:00 | 00:00:00 | 00:00:00 | |
| LZ4TU-5 | 2026-09-02 11:48:31 | 44.22685 | 22.91698 | 78° | 122km/h | 11227m | 4.6m/s | -50.3°C | 21.2% | 0hPa | 0V | 00:00:00 | 00:00:00 | 00:00:00 | |
| LZ4TU-5 | 2026-09-02 11:44:46 | 44.22030 | 22.83615 | 97° | 108km/h | 9799m | 6.8m/s | -40.6°C | 35.6% | 0hPa | 0V | 00:00:00 | 00:00:00 | 00:00:00 | |
| LZ4TU-5 | 2026-09-02 11:44:41 | 44.22023 | 22.83448 | 79° | 97km/h | 9769m | 4.8m/s | -40.3°C | 35.2% | 0hPa | 0V | 00:00:00 | 00:00:00 | 00:00:00 | |
| LZ4TU-5 | 2026-09-02 11:26:12 | 44.21715 | 22.58887 | 76° | 16km/h | 3611m | 5.8m/s | 2.3°C | 17.9% | 0hPa | 0V | 00:00:00 | 00:00:00 | 00:00:00 | |
| LZ4TU-5 | 2026-09-02 11:26:08 | 44.21714 | 22.58848 | 108° | 33km/h | 3585m | 5.8m/s | 2.5°C | 18.2% | 0hPa | 0V | 00:00:00 | 00:00:00 | 00:00:00 | |
| LZ4TU-5 | 2026-09-02 11:24:59 | 44.21799 | 22.57939 | 66° | 33km/h | 3113m | 6.3m/s | 5.0°C | 56.5% | 0hPa | 0V | 00:00:00 | 00:00:00 | 00:00:00 | |
| LZ4TU-5 | 2026-09-02 11:24:54 | 44.21813 | 22.57875 | 111° | 62km/h | 3085m | 6.6m/s | 5.3°C | 55.6% | 0hPa | 0V | 00:00:00 | 00:00:00 | 00:00:00 | |
| LZ4TU-5 | 2026-09-02 11:23:45 | 44.21966 | 22.56823 | 96° | 35km/h | 2731m | 3.8m/s | 8.0°C | 41.5% | 0hPa | 0V | 00:00:00 | 00:00:00 | 00:00:00 | |
| LZ4TU-5 | 2026-09-02 11:23:40 | 44.21991 | 22.56749 | 119° | 40km/h | 2708m | 4.3m/s | 8.1°C | 40.8% | 0hPa | 0V | 00:00:00 | 00:00:00 | 00:00:00 | |
| LZ4TU-5 | 2026-09-02 11:22:31 | 44.22065 | 22.55904 | 88° | 55km/h | 2400m | 4.3m/s | 9.2°C | 49.1% | 0hPa | 0V | 00:00:00 | 00:00:00 | 00:00:00 | |
| LZ4TU-5 | 2026-09-02 11:22:26 | 44.22063 | 22.55852 | 102° | 16km/h | 2377m | 2.7m/s | 9.4°C | 0% | 0hPa | 0V | 00:00:00 | 00:00:00 | 00:00:00 | |
| LZ4TU-5 | 2026-09-02 11:21:16 | 44.22155 | 22.55019 | 115° | 16km/h | 2021m | 7.0m/s | 12.6°C | 41.3% | 0hPa | 0V | 00:00:00 | 00:00:00 | 00:00:00 | |
| LZ4TU-5 | 2026-09-02 11:21:11 | 44.22160 | 22.54975 | 114° | 29km/h | 1990m | 6.6m/s | 12.9°C | 40.8% | 0hPa | 0V | 00:00:00 | 00:00:00 | 00:00:00 | |
| LZ4TU-5 | 2026-09-02 11:20:01 | 44.22399 | 22.54459 | 136° | 20km/h | 1640m | 4.5m/s | 16.1°C | 35.7% | 0hPa | 0V | 00:00:00 | 00:00:00 | 00:00:00 | |
| LZ4TU-5 | 2026-09-02 11:19:57 | 44.22414 | 22.54436 | 125° | 27km/h | 1622m | 5.1m/s | 16.3°C | 0% | 0hPa | 0V | 00:00:00 | 00:00:00 | 00:00:00 |